Time;durP1;ratioP1;P1;durP2;ratioP2;P2;SDS_P1;SDS_P2;PMS_P1;PMS_P2;Temp;Humidity;BMP_temperature;BMP_pressure;BME280_temperature;BME280_humidity;BME280_pressure;Samples;Min_cycle;Max_cycle;Signal;HPM_P1;HPM_P2
2024/03/23 00:02:09;;;;;;;2.25;1.27;;;;;;;5.09;67.78;99924.81;5005817;28;20054;-41
2024/03/23 00:04:35;;;;;;;2.20;0.80;;;;;;;5.08;67.32;99935.94;5009580;28;20506;-40
2024/03/23 00:07:02;;;;;;;3.92;0.47;;;;;;;5.04;68.27;99931.56;5006566;28;20058;-41
2024/03/23 00:09:29;;;;;;;2.60;0.93;;;;;;;5.02;67.78;99925.53;5005802;28;20045;-42
2024/03/23 00:11:56;;;;;;;1.90;0.95;;;;;;;4.97;69.13;99924.59;4987894;28;20062;-42
2024/03/23 00:14:22;;;;;;;4.60;1.30;;;;;;;4.85;70.48;99920.97;5007230;28;20057;-41
2024/03/23 00:16:49;;;;;;;2.58;0.70;;;;;;;4.89;69.20;99916.75;5007688;28;20115;-43
2024/03/23 00:19:16;;;;;;;2.15;1.25;;;;;;;4.92;69.39;99923.63;5003591;28;20453;-41
2024/03/23 00:21:43;;;;;;;2.45;0.63;;;;;;;4.89;69.37;99909.91;5005675;28;20046;-42
2024/03/23 00:24:11;;;;;;;6.68;1.30;;;;;;;4.87;69.82;99909.00;5006425;28;20045;-41
2024/03/23 00:26:38;;;;;;;1.30;0.40;;;;;;;4.86;68.79;99903.84;5006935;28;20038;-42
2024/03/23 00:29:04;;;;;;;2.70;1.08;;;;;;;4.87;69.66;99909.00;5007378;28;20054;-41
2024/03/23 00:31:31;;;;;;;1.50;0.75;;;;;;;4.83;69.19;99902.09;5007456;28;20495;-40
2024/03/23 00:33:58;;;;;;;2.75;0.70;;;;;;;4.79;70.04;99900.31;5007935;28;20116;-41
2024/03/23 00:36:25;;;;;;;0.80;0.70;;;;;;;4.81;69.47;99903.78;5004501;28;20050;-41
2024/03/23 00:38:52;;;;;;;1.63;1.00;;;;;;;4.79;69.47;99910.56;5007321;28;20729;-42
2024/03/23 00:41:19;;;;;;;0.70;0.60;;;;;;;4.80;68.98;99907.16;5006401;28;20123;-42
2024/03/23 00:43:45;;;;;;;2.60;2.40;;;;;;;4.79;69.37;99912.28;5023740;28;20061;-44
2024/03/23 00:46:12;;;;;;;3.05;0.57;;;;;;;4.75;69.87;99912.22;4990276;28;20042;-40
2024/03/23 00:48:39;;;;;;;2.47;2.25;;;;;;;4.76;69.73;99911.38;5002568;28;20410;-44
2024/03/23 00:51:05;;;;;;;1.83;0.73;;;;;;;4.75;69.41;99908.78;5006063;28;20620;-42
2024/03/23 00:53:31;;;;;;;4.63;1.38;;;;;;;4.71;69.51;99912.13;5006560;28;20054;-41
2024/03/23 00:55:57;;;;;;;1.80;0.38;;;;;;;4.63;70.03;99910.28;5004234;28;20046;-42
2024/03/23 00:58:23;;;;;;;2.25;0.50;;;;;;;4.69;69.93;99909.53;5002680;28;20058;-43
2024/03/23 01:00:48;;;;;;;1.98;0.63;;;;;;;4.55;71.20;99909.28;5019621;28;20046;-42
2024/03/23 01:03:14;;;;;;;2.35;0.68;;;;;;;4.58;70.36;99904.22;5005798;28;20100;-43
2024/03/23 01:05:40;;;;;;;6.03;1.75;;;;;;;4.56;70.01;99903.31;5001705;28;20046;-42
2024/03/23 01:08:06;;;;;;;3.75;1.13;;;;;;;4.49;70.82;99886.06;5004162;28;20053;-42
2024/03/23 01:10:31;;;;;;;3.63;1.15;;;;;;;4.51;70.20;99889.53;5006595;28;20061;-44
2024/03/23 01:12:57;;;;;;;4.18;1.13;;;;;;;4.58;69.83;99885.38;5004788;28;20054;-41
2024/03/23 01:15:23;;;;;;;2.80;1.10;;;;;;;4.48;70.50;99877.53;5014692;28;20124;-42
2024/03/23 01:17:49;;;;;;;1.13;0.77;;;;;;;4.43;70.62;99881.66;5003181;28;20054;-40
2024/03/23 01:20:14;;;;;;;0.88;0.32;;;;;;;4.44;71.14;99874.84;5021968;28;20172;-43
2024/03/23 01:22:41;;;;;;;1.00;0.65;;;;;;;4.35;71.21;99873.84;5003921;28;20062;-44
2024/03/23 01:25:07;;;;;;;2.65;1.30;;;;;;;4.40;71.03;99870.50;5018483;28;20053;-41
2024/03/23 01:27:34;;;;;;;5.40;1.10;;;;;;;4.40;71.29;99875.63;4997974;28;20104;-41
2024/03/23 01:30:00;;;;;;;2.40;2.15;;;;;;;4.35;70.86;99873.84;5004439;28;20442;-40
2024/03/23 01:32:25;;;;;;;3.08;1.10;;;;;;;4.31;70.93;99871.19;5005463;28;20396;-44
2024/03/23 01:34:51;;;;;;;2.05;0.80;;;;;;;4.31;71.05;99874.63;5005980;28;20041;-41
2024/03/23 01:37:17;;;;;;;3.90;1.58;;;;;;;4.34;70.43;99869.56;5003885;28;20416;-41
2024/03/23 01:39:42;;;;;;;4.78;0.75;;;;;;;4.29;70.95;99876.28;5005450;28;20507;-41
2024/03/23 01:42:08;;;;;;;1.73;1.15;;;;;;;4.19;71.88;99866.69;5004227;28;20579;-40
2024/03/23 01:44:34;;;;;;;3.05;0.95;;;;;;;4.14;71.69;99858.00;5003100;28;20034;-43
2024/03/23 01:46:59;;;;;;;4.90;1.02;;;;;;;4.20;72.02;99863.28;5004438;28;20092;-43
2024/03/23 01:49:25;;;;;;;3.92;0.63;;;;;;;4.14;71.73;99855.44;5014782;28;20132;-41
2024/03/23 01:51:51;;;;;;;2.42;0.73;;;;;;;4.15;71.67;99864.91;4995212;28;20076;-41
2024/03/23 01:54:17;;;;;;;2.17;1.17;;;;;;;4.22;71.62;99861.63;4998087;28;20073;-41
2024/03/23 01:56:43;;;;;;;1.92;0.82;;;;;;;4.22;71.30;99857.34;5004582;28;20136;-41
2024/03/23 01:59:08;;;;;;;3.13;1.13;;;;;;;4.17;72.29;99858.09;5004506;28;20046;-41
2024/03/23 02:01:36;;;;;;;5.93;0.70;;;;;;;4.17;71.75;99860.66;5002940;28;20061;-41
2024/03/23 02:04:02;;;;;;;2.95;0.82;;;;;;;4.18;71.27;99854.69;5004320;28;20116;-43
2024/03/23 02:06:28;;;;;;;1.20;0.65;;;;;;;4.19;71.70;99856.44;4999380;28;20124;-41
2024/03/23 02:08:55;;;;;;;6.82;1.08;;;;;;;4.17;71.56;99855.53;4998924;28;20037;-42
2024/03/23 02:11:21;;;;;;;0.63;0.55;;;;;;;4.13;72.32;99846.91;4999924;28;20080;-45
2024/03/23 02:13:46;;;;;;;2.83;0.63;;;;;;;4.19;71.42;99849.59;5017556;28;20085;-40
2024/03/23 02:16:13;;;;;;;4.63;1.35;;;;;;;4.12;71.68;99855.41;5003013;28;20064;-40
2024/03/23 02:18:38;;;;;;;3.90;1.95;;;;;;;4.13;71.58;99846.91;4996791;28;20634;-41
2024/03/23 02:21:04;;;;;;;1.73;0.88;;;;;;;4.07;71.93;99839.09;5010215;28;20096;-42
2024/03/23 02:23:30;;;;;;;2.33;0.38;;;;;;;4.04;72.03;99842.47;5002192;28;20046;-42
2024/03/23 02:25:56;;;;;;;2.83;0.80;;;;;;;4.07;72.03;99837.41;4999242;28;20153;-41
2024/03/23 02:28:23;;;;;;;2.67;1.95;;;;;;;3.99;72.28;99834.66;5002663;28;20058;-41
2024/03/23 02:30:49;;;;;;;1.50;1.23;;;;;;;4.00;72.19;99840.66;5000552;28;20042;-42
2024/03/23 02:33:16;;;;;;;0.80;0.57;;;;;;;3.96;72.25;99832.03;5007065;28;20072;-42
2024/03/23 02:35:43;;;;;;;3.25;0.93;;;;;;;3.88;72.60;99835.28;5006202;28;20049;-44
2024/03/23 02:38:08;;;;;;;2.00;1.00;;;;;;;3.93;72.35;99836.25;5001834;28;20034;-42
2024/03/23 02:40:34;;;;;;;1.45;0.80;;;;;;;3.91;72.30;99830.22;4999476;28;20105;-40
2024/03/23 02:43:00;;;;;;;3.10;0.77;;;;;;;3.94;72.25;99825.16;4998676;28;20054;-41
2024/03/23 02:45:26;;;;;;;2.42;0.65;;;;;;;3.89;71.89;99826.75;5005204;28;20038;-42
2024/03/23 02:47:52;;;;;;;5.45;0.98;;;;;;;3.91;72.47;99819.97;4999092;28;20058;-42
2024/03/23 02:50:19;;;;;;;2.90;0.98;;;;;;;3.93;72.24;99818.31;5020385;28;20562;-41
2024/03/23 02:52:45;;;;;;;0.98;0.85;;;;;;;3.94;71.76;99818.34;5004537;28;20046;-42
2024/03/23 02:55:11;;;;;;;2.72;1.38;;;;;;;3.90;72.00;99824.25;4999210;28;20045;-43
2024/03/23 02:57:37;;;;;;;0.88;0.57;;;;;;;3.82;72.72;99818.94;5002171;28;20056;-48
2024/03/23 03:00:03;;;;;;;1.70;1.02;;;;;;;3.82;72.66;99813.81;5003877;28;20050;-44
2024/03/23 03:02:29;;;;;;;1.13;0.38;;;;;;;3.82;72.94;99821.50;5001338;28;20112;-40
2024/03/23 03:04:55;;;;;;;2.15;0.88;;;;;;;3.82;72.79;99816.38;4986520;28;20054;-43
2024/03/23 03:07:20;;;;;;;1.92;0.47;;;;;;;3.80;72.81;99812.94;5005527;28;20085;-41
2024/03/23 03:09:46;;;;;;;4.80;0.65;;;;;;;3.83;72.60;99807.88;5005240;28;20081;-41
2024/03/23 03:12:12;;;;;;;11.30;0.95;;;;;;;3.81;72.73;99814.66;5005297;28;20080;-41
2024/03/23 03:14:37;;;;;;;4.25;0.45;;;;;;;3.72;73.57;99809.34;5004800;28;20046;-43
2024/03/23 03:17:03;;;;;;;2.40;0.77;;;;;;;3.80;72.63;99812.06;5007642;28;20073;-41
2024/03/23 03:19:29;;;;;;;1.58;1.48;;;;;;;3.82;72.44;99803.56;5003909;28;20790;-41
2024/03/23 03:21:55;;;;;;;2.45;1.23;;;;;;;3.81;72.55;99809.53;4997816;28;20062;-41
2024/03/23 03:24:21;;;;;;;3.35;0.82;;;;;;;3.80;72.14;99800.13;5017315;28;20046;-45
2024/03/23 03:26:47;;;;;;;4.00;1.00;;;;;;;3.77;71.83;99800.06;5006638;28;20057;-41
2024/03/23 03:29:13;;;;;;;1.38;0.85;;;;;;;3.76;72.63;99800.00;5003273;28;20129;-45
2024/03/23 03:31:39;;;;;;;4.00;0.88;;;;;;;3.72;72.71;99797.38;5005687;28;20057;-41
2024/03/23 03:34:05;;;;;;;2.97;0.80;;;;;;;3.75;72.32;99795.72;5006115;28;20056;-42
2024/03/23 03:36:31;;;;;;;3.40;1.15;;;;;;;3.72;72.63;99793.97;5009986;28;20050;-44
2024/03/23 03:38:56;;;;;;;0.93;0.88;;;;;;;3.65;72.86;99797.25;5004862;28;20037;-41
2024/03/23 03:41:22;;;;;;;3.03;1.00;;;;;;;3.65;72.76;99789.56;5019802;28;20483;-42
2024/03/23 03:43:48;;;;;;;0.82;0.52;;;;;;;3.55;73.43;99791.91;5006987;28;20045;-42
2024/03/23 03:46:13;;;;;;;0.88;0.50;;;;;;;3.63;73.21;99791.19;5024006;28;20050;-40
2024/03/23 03:48:39;;;;;;;3.53;0.60;;;;;;;3.64;73.10;99785.28;5005392;28;20101;-44
2024/03/23 03:51:05;;;;;;;5.70;1.52;;;;;;;3.62;72.87;99785.22;5004328;28;20050;-43
2024/03/23 03:53:31;;;;;;;1.85;0.50;;;;;;;3.62;72.55;99786.91;4997958;28;20061;-44
2024/03/23 03:56:00;;;;;;;0.70;0.70;;;;;;;3.54;73.09;99779.94;5005449;28;20810;-40
2024/03/23 03:58:26;;;;;;;1.42;0.77;;;;;;;3.54;73.26;99782.50;5020092;28;20057;-41
2024/03/23 04:00:52;;;;;;;1.48;0.73;;;;;;;3.48;73.10;99784.94;5002561;28;20076;-42
2024/03/23 04:03:17;;;;;;;5.18;1.17;;;;;;;3.49;73.30;99773.84;5006088;28;20054;-42
2024/03/23 04:05:43;;;;;;;2.95;0.43;;;;;;;3.44;73.69;99772.88;5001337;28;20058;-42
2024/03/23 04:08:08;;;;;;;1.08;0.60;;;;;;;3.46;73.66;99776.34;5006198;28;20054;-44
2024/03/23 04:10:34;;;;;;;2.00;0.65;;;;;;;3.43;73.89;99763.47;5002005;28;20058;-42
2024/03/23 04:13:00;;;;;;;9.18;1.45;;;;;;;3.46;73.87;99763.53;5004467;28;20184;-43
2024/03/23 04:15:26;;;;;;;1.60;1.27;;;;;;;3.44;73.71;99758.38;5006636;28;20038;-42
2024/03/23 04:17:52;;;;;;;3.53;0.85;;;;;;;3.40;73.87;99753.16;5007798;28;20187;-42
2024/03/23 04:20:18;;;;;;;3.03;0.57;;;;;;;3.41;74.05;99753.19;5020155;28;20045;-42
2024/03/23 04:22:44;;;;;;;1.45;0.55;;;;;;;3.46;73.95;99755.84;5005097;28;20077;-44
2024/03/23 04:25:10;;;;;;;1.95;0.68;;;;;;;3.41;74.23;99744.66;5000915;28;20057;-41
2024/03/23 04:27:37;;;;;;;2.47;0.90;;;;;;;3.51;73.57;99741.44;5004691;28;20096;-41
2024/03/23 04:30:09;;;;;;;0.82;0.57;;;;;;;3.46;73.82;99735.38;5002374;28;20053;-43
2024/03/23 04:32:35;;;;;;;3.38;0.82;;;;;;;3.47;73.65;99737.09;5006896;28;20046;-41
2024/03/23 04:35:00;;;;;;;2.42;1.50;;;;;;;3.46;73.59;99727.69;5006837;28;20046;-41
2024/03/23 04:37:26;;;;;;;3.13;0.55;;;;;;;3.46;73.72;99735.38;5006678;28;20062;-42
2024/03/23 04:39:52;;;;;;;1.27;0.40;;;;;;;3.40;74.26;99740.34;5006578;28;20078;-41
2024/03/23 04:42:18;;;;;;;4.65;1.05;;;;;;;3.40;74.32;99737.78;5006215;28;20051;-41
2024/03/23 04:44:44;;;;;;;3.80;0.73;;;;;;;3.28;74.59;99740.97;5006388;28;20056;-40
2024/03/23 04:47:11;;;;;;;1.98;0.85;;;;;;;3.33;74.22;99735.13;5005417;28;20046;-42
2024/03/23 04:49:36;;;;;;;1.15;0.77;;;;;;;3.35;74.19;99737.72;5006680;28;20050;-41
2024/03/23 04:52:04;;;;;;;4.00;1.30;;;;;;;3.32;74.09;99737.63;5006461;28;20057;-42
2024/03/23 04:54:30;;;;;;;4.80;0.85;;;;;;;3.36;74.16;99728.31;5005799;28;20048;-43
2024/03/23 04:56:56;;;;;;;1.67;1.58;;;;;;;3.29;74.47;99730.75;5002078;28;20451;-42
2024/03/23 04:59:21;;;;;;;1.88;1.73;;;;;;;3.32;74.73;99727.41;5006416;28;20410;-40
2024/03/23 05:01:47;;;;;;;1.38;1.05;;;;;;;3.28;75.06;99736.69;5002536;28;20054;-40
2024/03/23 05:04:13;;;;;;;0.90;0.70;;;;;;;3.29;74.30;99728.19;5004481;28;20050;-42
2024/03/23 05:06:38;;;;;;;7.97;1.48;;;;;;;3.31;74.77;99726.53;5005410;28;20041;-41
2024/03/23 05:09:11;;;;;;;3.28;0.52;;;;;;;3.27;75.06;99729.84;5003768;28;20105;-41
2024/03/23 05:11:38;;;;;;;1.90;0.93;;;;;;;3.33;73.91;99730.00;5005921;28;20050;-42
2024/03/23 05:14:04;;;;;;;11.38;3.42;;;;;;;3.31;75.15;99736.75;5006615;28;20453;-41
2024/03/23 05:16:30;;;;;;;1.67;0.70;;;;;;;3.27;74.80;99729.84;5009651;28;20129;-42
2024/03/23 05:18:55;;;;;;;1.17;0.88;;;;;;;3.22;75.64;99729.75;5007364;28;20050;-42
2024/03/23 05:21:21;;;;;;;3.53;0.75;;;;;;;3.22;75.62;99734.84;5016467;28;20613;-41
2024/03/23 05:23:47;;;;;;;0.80;0.38;;;;;;;3.30;74.84;99729.03;5004238;28;20046;-40
2024/03/23 05:26:14;;;;;;;1.38;1.27;;;;;;;3.20;75.66;99727.97;5004042;28;20046;-42
2024/03/23 05:28:40;;;;;;;3.35;0.52;;;;;;;3.28;75.01;99721.34;5004607;28;20865;-44
2024/03/23 05:31:06;;;;;;;4.82;0.50;;;;;;;3.30;74.97;99727.38;5002535;28;20050;-41
2024/03/23 05:33:31;;;;;;;3.30;1.05;;;;;;;3.25;75.05;99721.28;5021605;28;20183;-42
2024/03/23 05:35:58;;;;;;;5.30;0.98;;;;;;;3.26;75.06;99720.44;5005314;28;20080;-41
2024/03/23 05:38:25;;;;;;;2.90;1.73;;;;;;;3.32;74.78;99707.75;5004256;28;20422;-42
2024/03/23 05:40:55;;;;;;;4.75;1.23;;;;;;;3.33;75.05;99706.97;5005220;28;20073;-41
2024/03/23 05:43:22;;;;;;;2.30;0.52;;;;;;;3.34;74.95;99706.13;5020969;28;20046;-42
2024/03/23 05:45:56;;;;;;;3.80;0.57;;;;;;;3.39;74.62;99703.66;5004416;28;20034;-43
2024/03/23 05:48:22;;;;;;;0.88;0.80;;;;;;;3.35;74.23;99712.09;5018683;28;20141;-41
2024/03/23 05:50:49;;;;;;;0.40;0.30;;;;;;;3.36;74.50;99712.97;5005242;28;20056;-43
2024/03/23 05:53:15;;;;;;;2.88;1.05;;;;;;;3.44;74.43;99711.41;5002640;28;20046;-41
2024/03/23 05:55:42;;;;;;;1.50;0.80;;;;;;;3.38;74.40;99706.19;5003610;28;20510;-41
2024/03/23 05:58:08;;;;;;;9.10;1.00;;;;;;;3.44;74.83;99696.94;5006857;28;20057;-42
2024/03/23 06:00:34;;;;;;;3.00;1.33;;;;;;;3.48;74.71;99692.75;5005096;28;20049;-42
2024/03/23 06:03:00;;;;;;;1.38;0.60;;;;;;;3.46;74.05;99694.41;5005071;28;20049;-41
2024/03/23 06:05:26;;;;;;;5.63;1.20;;;;;;;3.49;74.31;99694.47;5003765;28;20140;-43
2024/03/23 06:07:52;;;;;;;6.10;0.82;;;;;;;3.53;74.02;99686.03;5006156;28;20117;-41
2024/03/23 06:10:18;;;;;;;3.30;0.50;;;;;;;3.60;74.10;99687.00;5012002;28;20049;-42
2024/03/23 06:12:46;;;;;;;4.68;2.28;;;;;;;3.53;74.61;99686.03;5005403;28;20414;-40
2024/03/23 06:15:12;;;;;;;3.60;1.60;;;;;;;3.52;74.53;99679.19;5003625;28;20403;-42
2024/03/23 06:17:38;;;;;;;1.23;0.85;;;;;;;3.51;74.04;99677.44;5003751;28;20187;-41
2024/03/23 06:20:06;;;;;;;4.88;2.03;;;;;;;3.56;74.59;99675.84;5001358;28;20450;-40
2024/03/23 06:22:32;;;;;;;2.60;0.80;;;;;;;3.56;74.63;99674.97;5002436;28;20123;-43
2024/03/23 06:24:57;;;;;;;3.85;2.28;;;;;;;3.58;74.73;99669.03;4997494;28;20422;-42
2024/03/23 06:27:23;;;;;;;1.30;0.88;;;;;;;3.63;74.41;99655.44;4997980;28;20054;-41
2024/03/23 06:29:49;;;;;;;4.40;0.30;;;;;;;3.55;74.49;99651.03;5002768;28;20494;-40
2024/03/23 06:32:15;;;;;;;5.30;0.68;;;;;;;3.65;73.95;99643.56;5013003;28;20557;-44
2024/03/23 06:34:41;;;;;;;1.83;0.95;;;;;;;3.66;73.83;99647.84;5005002;28;20050;-42
2024/03/23 06:37:09;;;;;;;5.68;2.10;;;;;;;3.59;74.03;99645.16;5005464;28;20072;-43
2024/03/23 06:39:36;;;;;;;6.80;3.33;;;;;;;3.58;74.37;99648.53;5007810;28;20058;-45
2024/03/23 06:42:03;;;;;;;11.32;5.15;;;;;;;3.64;74.60;99646.97;5006700;28;20073;-42
2024/03/23 06:44:29;;;;;;;10.90;2.65;;;;;;;3.74;74.07;99651.41;5007151;28;20049;-43
2024/03/23 06:46:55;;;;;;;15.23;6.03;;;;;;;3.75;74.88;99642.88;5006190;28;20092;-40
2024/03/23 06:49:20;;;;;;;4.50;2.30;;;;;;;3.78;74.39;99648.06;5008289;28;20062;-42
2024/03/23 06:51:46;;;;;;;4.93;2.22;;;;;;;3.75;75.01;99637.75;5003342;28;20922;-40
2024/03/23 06:54:12;;;;;;;5.22;0.77;;;;;;;3.75;74.89;99635.19;4999018;28;20065;-41
2024/03/23 06:56:38;;;;;;;3.42;0.88;;;;;;;3.78;74.68;99635.25;5004769;28;20053;-41
2024/03/23 06:59:04;;;;;;;3.53;1.20;;;;;;;3.77;74.79;99630.97;5006998;28;20095;-42
2024/03/23 07:01:29;;;;;;;2.38;1.42;;;;;;;3.81;74.68;99625.06;5008467;28;20082;-45
2024/03/23 07:03:55;;;;;;;3.50;2.83;;;;;;;3.83;74.95;99627.66;5009551;28;20606;-42
2024/03/23 07:06:21;;;;;;;3.47;1.63;;;;;;;3.91;74.66;99630.34;5007022;28;20049;-42
2024/03/23 07:08:47;;;;;;;21.30;4.05;;;;;;;3.99;74.38;99628.81;5005022;28;20084;-42
2024/03/23 07:11:19;;;;;;;26.73;6.10;;;;;;;4.01;74.53;99632.25;5017041;28;20046;-42
2024/03/23 07:13:45;;;;;;;10.15;4.13;;;;;;;3.99;74.61;99636.50;5005332;28;20569;-42
2024/03/23 07:16:13;;;;;;;12.35;3.72;;;;;;;4.05;74.33;99622.91;5007619;28;20200;-40
2024/03/23 07:18:39;;;;;;;8.75;2.47;;;;;;;4.16;74.28;99628.22;5008853;28;20057;-43
2024/03/23 07:21:06;;;;;;;3.47;1.65;;;;;;;4.13;73.84;99628.16;5017212;28;20050;-40
2024/03/23 07:23:32;;;;;;;7.95;3.17;;;;;;;4.23;73.75;99632.63;5001491;28;20533;-42
2024/03/23 07:26:02;;;;;;;3.63;2.58;;;;;;;4.61;73.52;99628.91;5023190;28;20041;-42
2024/03/23 07:28:36;;;;;;;2.88;1.77;;;;;;;5.27;72.60;99631.50;5008150;28;20057;-41
2024/03/23 07:31:05;;;;;;;5.78;2.20;;;;;;;5.73;69.86;99630.31;5014006;28;20063;-42
2024/03/23 07:33:31;;;;;;;3.47;2.50;;;;;;;5.90;69.90;99630.47;5005020;28;20049;-41
2024/03/23 07:35:59;;;;;;;5.50;1.50;;;;;;;6.17;67.81;99636.75;5004115;28;20050;-42
2024/03/23 07:38:24;;;;;;;4.13;3.55;;;;;;;6.92;68.63;99626.09;5018317;28;20481;-43
2024/03/23 07:40:55;;;;;;;5.30;2.28;;;;;;;7.58;67.41;99627.25;5006051;28;20054;-41
2024/03/23 07:43:20;;;;;;;4.45;1.80;;;;;;;8.01;64.05;99626.47;5018212;28;20125;-41
2024/03/23 07:45:52;;;;;;;6.10;3.88;;;;;;;8.43;63.65;99621.31;5006824;28;20510;-41
2024/03/23 07:48:18;;;;;;;9.13;2.00;;;;;;;8.74;61.75;99613.53;4999285;28;20072;-43
2024/03/23 07:50:44;;;;;;;4.60;2.80;;;;;;;9.06;61.00;99618.63;5006140;28;20415;-44
2024/03/23 07:53:10;;;;;;;4.53;1.25;;;;;;;9.35;59.66;99613.31;5003745;28;20049;-41
2024/03/23 07:55:35;;;;;;;7.38;1.10;;;;;;;9.81;59.54;99602.72;5019809;28;20154;-42
2024/03/23 07:58:01;;;;;;;2.80;1.55;;;;;;;10.10;57.66;99612.84;5001056;28;20057;-42
2024/03/23 08:00:27;;;;;;;2.97;1.33;;;;;;;10.54;57.66;99615.13;5005376;28;20129;-42
2024/03/23 08:02:52;;;;;;;5.60;1.67;;;;;;;10.75;56.53;99616.66;5006238;28;20180;-42
2024/03/23 08:05:18;;;;;;;12.52;2.05;;;;;;;11.23;56.58;99620.41;5002585;28;20068;-44
2024/03/23 08:07:44;;;;;;;4.30;1.38;;;;;;;11.60;56.12;99623.41;5001609;28;20116;-42
2024/03/23 08:10:10;;;;;;;1.92;1.20;;;;;;;11.81;54.90;99602.34;5014415;28;20061;-42
2024/03/23 08:12:36;;;;;;;3.33;1.60;;;;;;;11.98;54.31;99609.00;5001131;28;20057;-44
2024/03/23 08:15:01;;;;;;;6.38;1.35;;;;;;;12.42;54.97;99610.91;5005228;28;20038;-44
2024/03/23 08:17:27;;;;;;;2.83;0.95;;;;;;;12.18;52.71;99613.06;5000978;28;20935;-45
2024/03/23 08:19:53;;;;;;;5.32;1.42;;;;;;;11.69;52.56;99595.59;5000437;28;20048;-43
2024/03/23 08:22:19;;;;;;;8.52;3.20;;;;;;;11.32;51.62;99591.78;5001164;28;20062;-42
2024/03/23 08:24:45;;;;;;;6.43;2.03;;;;;;;11.68;51.98;99596.47;4999198;28;20506;-41
2024/03/23 08:27:10;;;;;;;4.85;1.80;;;;;;;11.85;51.86;99597.97;5002811;28;20104;-43
2024/03/23 08:29:36;;;;;;;13.18;4.28;;;;;;;11.80;51.74;99595.44;5004911;28;20120;-41
2024/03/23 08:32:02;;;;;;;8.27;2.72;;;;;;;12.03;51.73;99586.41;4999329;28;20042;-43
2024/03/23 08:34:27;;;;;;;4.80;1.73;;;;;;;12.26;51.01;99577.44;5000068;28;20782;-40
2024/03/23 08:36:53;;;;;;;9.43;2.63;;;;;;;12.30;50.43;99586.88;5002761;28;20133;-43
2024/03/23 08:39:19;;;;;;;9.32;3.60;;;;;;;12.31;50.17;99572.16;5005484;28;20534;-42
2024/03/23 08:41:46;;;;;;;13.52;3.50;;;;;;;12.78;51.88;99579.97;5002723;28;20065;-42
2024/03/23 08:44:11;;;;;;;8.77;2.45;;;;;;;12.68;50.04;99583.63;5002145;28;20045;-41
2024/03/23 08:46:37;;;;;;;9.45;2.72;;;;;;;12.57;49.73;99576.88;5001540;28;20108;-43
2024/03/23 08:49:02;;;;;;;8.45;2.90;;;;;;;12.26;49.99;99582.63;5002987;28;20061;-43
2024/03/23 08:51:28;;;;;;;3.42;1.40;;;;;;;12.22;50.03;99588.75;4999601;28;20047;-46
2024/03/23 08:53:54;;;;;;;5.40;1.52;;;;;;;11.66;50.79;99582.66;5002132;28;20046;-43
2024/03/23 08:56:19;;;;;;;3.65;2.00;;;;;;;11.36;50.33;99579.66;5006526;28;20084;-42
2024/03/23 08:58:45;;;;;;;6.70;2.05;;;;;;;11.78;51.24;99586.81;5005196;28;20096;-42
2024/03/23 09:01:14;;;;;;;8.00;1.15;;;;;;;12.51;51.42;99577.00;5001211;28;20062;-42
2024/03/23 09:03:40;;;;;;;4.88;0.90;;;;;;;12.26;50.06;99587.81;5001858;28;20695;-43
2024/03/23 09:06:10;;;;;;;5.78;2.53;;;;;;;12.01;50.54;99583.00;5003008;28;20061;-45
2024/03/23 09:08:36;;;;;;;;;;;;;;;12.13;49.67;99581.13;5002606;28;20498;-42
2024/03/23 09:11:06;;;;;;;4.78;2.72;;;;;;;12.36;51.02;99590.28;5002084;28;20268;-43
2024/03/23 09:13:34;;;;;;;3.85;1.60;;;;;;;12.64;49.04;99584.56;5003209;28;20058;-42
2024/03/23 09:16:01;;;;;;;6.57;1.42;;;;;;;12.72;49.72;99580.06;4996172;28;20043;-45
2024/03/23 09:18:27;;;;;;;2.50;1.00;;;;;;;12.82;49.15;99579.03;5002216;28;20112;-45
2024/03/23 09:20:54;;;;;;;3.45;1.42;;;;;;;12.77;49.60;99580.84;5002167;28;20050;-43
2024/03/23 09:23:21;;;;;;;5.22;1.30;;;;;;;12.37;48.56;99573.78;5001755;28;20068;-42
2024/03/23 09:25:47;;;;;;;4.82;1.55;;;;;;;12.21;50.55;99574.94;5003511;28;20054;-43
2024/03/23 09:28:12;;;;;;;4.40;1.85;;;;;;;12.66;50.50;99575.84;5007514;28;20139;-42
2024/03/23 09:30:42;;;;;;;5.20;0.75;;;;;;;12.64;49.25;99568.97;4998721;28;20124;-43
2024/03/23 09:33:08;;;;;;;5.50;1.17;;;;;;;12.54;48.42;99566.56;5002072;28;20046;-43
2024/03/23 09:35:38;;;;;;;4.80;2.53;;;;;;;12.36;47.96;99566.91;5005352;28;20418;-43
2024/03/23 09:38:04;;;;;;;5.18;2.75;;;;;;;12.14;48.87;99564.66;5005216;28;20406;-43
2024/03/23 09:40:30;;;;;;;4.10;1.23;;;;;;;12.25;48.75;99560.16;5003553;28;20061;-43
2024/03/23 09:42:55;;;;;;;3.28;0.75;;;;;;;12.53;48.24;99546.66;5006184;28;20053;-43
2024/03/23 09:45:28;;;;;;;5.60;1.00;;;;;;;12.27;48.80;99548.00;5002931;28;20038;-42
2024/03/23 09:47:56;;;;;;;1.63;0.68;;;;;;;11.87;50.02;99553.81;5005617;28;20499;-43
2024/03/23 09:50:22;;;;;;;3.58;1.10;;;;;;;11.65;49.92;99556.78;4999764;28;20589;-44
2024/03/23 09:52:48;;;;;;;2.42;1.00;;;;;;;11.34;51.50;99549.44;5001156;28;20061;-41
2024/03/23 09:55:14;;;;;;;3.05;0.68;;;;;;;11.22;51.98;99546.13;4997732;28;20049;-42
2024/03/23 09:57:41;;;;;;;2.63;0.75;;;;;;;10.98;51.61;99542.97;5001852;28;20060;-41
2024/03/23 10:00:08;;;;;;;4.78;1.05;;;;;;;11.05;51.91;99538.56;5007375;28;20053;-46
2024/03/23 10:02:34;;;;;;;7.68;1.02;;;;;;;11.30;52.80;99549.47;5005378;28;20054;-45
2024/03/23 10:05:00;;;;;;;3.55;1.10;;;;;;;11.47;52.80;99545.78;5003894;28;20054;-43
2024/03/23 10:07:28;;;;;;;3.50;1.08;;;;;;;11.10;51.25;99539.38;5001869;28;20088;-43
2024/03/23 10:09:54;;;;;;;5.72;0.88;;;;;;;10.94;51.32;99543.88;5003729;28;20050;-46
2024/03/23 10:12:20;;;;;;;7.00;1.13;;;;;;;10.84;51.44;99544.88;5002048;28;20056;-44
2024/03/23 10:14:46;;;;;;;6.47;1.13;;;;;;;10.74;51.90;99524.25;5001701;28;20053;-43
2024/03/23 10:19:51;;;;;;;5.15;2.05;;;;;;;10.29;53.59;99535.94;5080412;27;20398;-43
2024/03/23 10:22:19;;;;;;;7.68;1.90;;;;;;;10.24;54.02;99529.91;5042816;28;20056;-43
2024/03/23 10:24:45;;;;;;;5.55;2.00;;;;;;;10.39;53.98;99530.66;5021145;28;20061;-45
2024/03/23 10:27:20;;;;;;;4.50;2.72;;;;;;;10.76;53.60;99517.34;5015894;28;20538;-41
2024/03/23 10:29:46;;;;;;;6.72;2.08;;;;;;;10.94;53.40;99546.47;5017050;28;20041;-44
2024/03/23 10:32:14;;;;;;;3.97;3.33;;;;;;;10.25;55.25;99552.38;5016593;28;20049;-42
2024/03/23 10:34:40;;;;;;;1.73;1.50;;;;;;;9.51;57.04;99565.00;5013983;28;20050;-43
2024/03/23 10:37:07;;;;;;;1.70;1.55;;;;;;;8.85;59.12;99548.94;5039878;28;21298;-42
2024/03/23 10:39:35;;;;;;;2.72;2.55;;;;;;;8.57;59.96;99554.19;5031708;28;20056;-43
2024/03/23 10:42:03;;;;;;;2.30;2.10;;;;;;;8.09;61.30;99551.66;5039348;28;20049;-41
2024/03/23 10:44:30;;;;;;;1.75;1.55;;;;;;;7.92;62.04;99544.78;5032197;28;20045;-41
2024/03/23 10:47:01;;;;;;;2.15;1.67;;;;;;;7.86;62.11;99557.66;5039120;28;20087;-41
2024/03/23 10:49:32;;;;;;;2.38;2.10;;;;;;;8.00;62.14;99541.34;5036640;28;20632;-40
2024/03/23 10:52:00;;;;;;;2.83;2.53;;;;;;;8.18;63.31;99549.06;5036266;28;20045;-42
2024/03/23 10:54:27;;;;;;;1.42;1.33;;;;;;;8.45;62.21;99544.72;5037397;28;20041;-42
2024/03/23 10:59:37;;;;;;;2.05;1.90;;;;;;;9.01;61.66;99548.88;5082434;27;20891;-41
2024/03/23 11:02:03;;;;;;;0.40;0.28;;;;;;;9.31;61.23;99547.00;5054730;28;20092;-41
2024/03/23 11:04:31;;;;;;;2.05;1.80;;;;;;;9.50;60.87;99544.31;5057996;28;20056;-41
2024/03/23 11:06:57;;;;;;;1.23;0.30;;;;;;;9.82;61.08;99534.59;5060644;28;20082;-43
2024/03/23 11:09:40;;;;;;;0.50;0.50;;;;;;;10.00;59.34;99531.03;5061952;28;20783;-45
2024/03/23 11:12:26;;;;;;;1.02;0.57;;;;;;;10.10;59.93;99529.22;5057155;28;20110;-43
2024/03/23 11:15:00;;;;;;;2.80;2.28;;;;;;;10.16;59.63;99526.56;5049765;28;20056;-45
2024/03/23 11:17:26;;;;;;;1.48;0.47;;;;;;;10.41;60.41;99521.16;5048089;28;20413;-45
2024/03/23 11:19:55;;;;;;;0.40;0.40;;;;;;;10.48;59.54;99506.44;5050773;28;20041;-44
2024/03/23 11:27:56;;;;;;;2.25;2.10;;;;;;;10.78;59.14;99497.44;5077173;27;20387;-39
2024/03/23 11:30:29;;;;;;;2.00;1.90;;;;;;;10.90;59.42;99503.34;5046646;28;20045;-42
2024/03/23 11:32:56;;;;;;;4.43;2.47;;;;;;;10.70;57.53;99501.00;5035963;28;20395;-41
2024/03/23 11:35:33;;;;;;;6.70;2.67;;;;;;;10.76;58.38;99506.97;5026188;28;20041;-41
2024/03/23 11:38:20;;;;;;;3.70;1.50;;;;;;;10.70;57.82;99507.03;5022633;28;20041;-43
2024/03/23 11:40:47;;;;;;;3.42;2.35;;;;;;;10.65;58.45;99499.34;5021699;28;20061;-43
2024/03/23 11:43:15;;;;;;;2.17;2.08;;;;;;;10.72;58.67;99514.78;5026361;28;20115;-41
2024/03/23 11:45:52;;;;;;;1.95;1.85;;;;;;;10.69;58.41;99510.50;5022350;28;20053;-43
2024/03/23 11:48:20;;;;;;;2.53;1.92;;;;;;;10.66;58.38;99511.41;5055443;28;20083;-42